createdAt,value
2018-05-19T00:00:41.270Z,99.90
2018-05-19T00:03:09.515Z,99.90
2018-05-19T00:05:36.985Z,99.90
2018-05-19T00:08:05.224Z,99.90
2018-05-19T00:10:33.476Z,99.90
2018-05-19T00:13:00.930Z,99.90
2018-05-19T00:15:28.430Z,99.90
2018-05-19T00:17:55.874Z,99.90
2018-05-19T00:20:23.359Z,99.90
2018-05-19T00:22:51.608Z,99.90
2018-05-19T00:25:19.099Z,99.90
2018-05-19T00:27:47.325Z,99.90
2018-05-19T00:30:14.827Z,99.90
2018-05-19T00:32:42.307Z,99.90
2018-05-19T00:35:09.767Z,99.90
2018-05-19T00:37:37.245Z,99.90
2018-05-19T00:40:04.698Z,99.90
2018-05-19T00:42:32.168Z,99.90
2018-05-19T00:44:59.624Z,99.90
2018-05-19T00:47:27.096Z,99.90
2018-05-19T00:49:54.560Z,99.90
2018-05-19T00:52:22.018Z,99.90
2018-05-19T00:55:05.312Z,99.90
2018-05-19T00:57:32.798Z,99.90
2018-05-19T01:00:00.266Z,99.90
2018-05-19T01:02:27.763Z,99.90
2018-05-19T01:04:55.231Z,99.90
2018-05-19T01:07:22.703Z,99.90
2018-05-19T01:09:50.197Z,99.90
2018-05-19T01:12:17.677Z,99.90
2018-05-19T01:14:45.919Z,99.90
2018-05-19T01:17:13.377Z,99.90
2018-05-19T01:19:40.876Z,99.90
2018-05-19T01:22:09.742Z,99.90
2018-05-19T01:24:37.997Z,99.90
2018-05-19T01:27:05.579Z,99.90
2018-05-19T01:29:33.810Z,99.90
2018-05-19T01:32:01.271Z,99.90
2018-05-19T01:34:28.751Z,99.90
2018-05-19T01:36:56.199Z,99.90
2018-05-19T01:39:23.688Z,99.90
2018-05-19T01:41:51.935Z,99.90
2018-05-19T01:44:19.495Z,99.90
2018-05-19T01:46:46.952Z,99.90
2018-05-19T01:49:14.435Z,99.90
2018-05-19T01:51:42.663Z,99.90
2018-05-19T01:54:10.147Z,99.90
2018-05-19T01:56:38.374Z,99.90
2018-05-19T01:59:05.843Z,99.90
2018-05-19T02:01:33.362Z,99.90
2018-05-19T02:04:00.819Z,99.90
2018-05-19T02:06:29.037Z,99.90
2018-05-19T02:08:56.495Z,99.90
2018-05-19T02:11:23.968Z,99.90
2018-05-19T02:13:51.417Z,99.90
2018-05-19T02:16:18.925Z,99.90
2018-05-19T02:18:46.390Z,99.90
2018-05-19T02:21:13.849Z,99.90
2018-05-19T02:23:41.301Z,99.90
2018-05-19T02:26:08.784Z,99.90
2018-05-19T02:28:36.252Z,99.90
2018-05-19T02:31:03.730Z,99.90
2018-05-19T02:33:35.087Z,99.90
2018-05-19T02:36:03.325Z,99.90
2018-05-19T02:38:31.542Z,99.90
2018-05-19T02:40:59.782Z,99.90
2018-05-19T02:43:27.292Z,99.90
2018-05-19T02:45:54.739Z,99.90
2018-05-19T02:48:22.219Z,99.90
2018-05-19T02:50:49.686Z,99.90
2018-05-19T02:53:17.176Z,99.90
2018-05-19T02:55:44.633Z,99.90
2018-05-19T02:58:12.110Z,99.90
2018-05-19T03:00:40.351Z,99.90
2018-05-19T03:03:07.827Z,99.90
2018-05-19T03:05:35.279Z,99.90
2018-05-19T03:08:02.750Z,99.90
2018-05-19T03:10:30.976Z,99.90
2018-05-19T03:12:59.265Z,99.90
2018-05-19T03:15:26.715Z,99.90
2018-05-19T03:17:54.201Z,99.90
2018-05-19T03:20:21.657Z,99.90
2018-05-19T03:22:49.127Z,99.90
2018-05-19T03:25:17.345Z,99.90
2018-05-19T03:27:44.814Z,99.90
2018-05-19T03:30:12.277Z,99.90
2018-05-19T03:32:39.730Z,99.90
2018-05-19T03:35:07.239Z,99.90
2018-05-19T03:37:35.439Z,99.90
2018-05-19T03:40:02.911Z,99.90
2018-05-19T03:42:30.350Z,99.90
2018-05-19T03:44:57.831Z,99.90
2018-05-19T03:47:25.834Z,99.90
2018-05-19T03:49:54.070Z,99.90
2018-05-19T03:52:21.535Z,99.90
2018-05-19T03:54:49.003Z,99.90
2018-05-19T03:57:28.471Z,99.90
2018-05-19T04:00:08.542Z,99.90
2018-05-19T04:02:36.006Z,99.90
2018-05-19T04:05:03.477Z,99.90
2018-05-19T04:07:30.948Z,99.90
2018-05-19T04:09:58.411Z,99.90
2018-05-19T04:12:25.897Z,99.90
2018-05-19T04:14:54.122Z,99.90
2018-05-19T04:17:21.586Z,99.90
2018-05-19T04:19:49.045Z,99.90
2018-05-19T04:22:16.509Z,99.90
2018-05-19T04:24:43.970Z,99.90
2018-05-19T04:27:11.439Z,99.90
2018-05-19T04:29:39.368Z,99.90
2018-05-19T04:32:06.849Z,99.90
2018-05-19T04:34:34.307Z,99.90
2018-05-19T04:37:01.772Z,99.90
2018-05-19T04:39:29.233Z,99.90
2018-05-19T04:41:56.717Z,99.90
2018-05-19T04:44:24.943Z,99.90
2018-05-19T04:46:52.386Z,99.90
2018-05-19T04:49:19.867Z,99.90
2018-05-19T04:51:47.350Z,99.90
2018-05-19T04:54:14.782Z,99.90
2018-05-19T04:56:42.255Z,99.90
2018-05-19T04:59:09.698Z,99.90
2018-05-19T05:01:37.166Z,99.90
2018-05-19T05:04:05.458Z,99.90
2018-05-19T05:06:32.905Z,99.90
2018-05-19T05:09:01.643Z,99.90
2018-05-19T05:11:29.151Z,99.90
2018-05-19T05:13:56.611Z,99.90
2018-05-19T05:16:24.062Z,99.90
2018-05-19T05:18:52.359Z,99.90
2018-05-19T05:21:19.818Z,99.90
2018-05-19T05:23:47.269Z,99.90
2018-05-19T05:26:15.148Z,99.90
2018-05-19T05:28:42.644Z,99.90
2018-05-19T05:31:10.885Z,99.90
2018-05-19T05:33:38.328Z,99.90
2018-05-19T05:36:05.815Z,99.90
2018-05-19T05:38:33.324Z,99.90
2018-05-19T05:41:01.552Z,99.90
2018-05-19T05:43:29.033Z,99.90
2018-05-19T05:45:56.492Z,99.90
2018-05-19T05:48:23.977Z,99.90
2018-05-19T05:50:52.209Z,99.90
2018-05-19T05:53:19.670Z,99.90
2018-05-19T05:55:47.131Z,99.90
2018-05-19T05:58:14.622Z,99.90
2018-05-19T06:00:42.848Z,99.90
2018-05-19T06:03:10.316Z,99.90
2018-05-19T06:05:37.769Z,99.90
2018-05-19T06:08:05.247Z,99.90
2018-05-19T06:10:32.700Z,99.90
2018-05-19T06:13:00.170Z,99.90
2018-05-19T06:15:28.493Z,99.90
2018-05-19T06:17:55.981Z,99.90
2018-05-19T06:20:23.425Z,99.90
2018-05-19T06:22:50.906Z,99.90
2018-05-19T06:25:18.420Z,99.90
2018-05-19T06:27:45.910Z,99.90
2018-05-19T06:30:13.381Z,99.90
2018-05-19T06:32:41.649Z,99.90
2018-05-19T06:35:09.090Z,99.90
2018-05-19T06:37:36.590Z,99.90
2018-05-19T06:40:04.047Z,99.90
2018-05-19T06:42:31.577Z,99.90
2018-05-19T06:44:59.033Z,99.90
2018-05-19T06:47:26.499Z,99.90
2018-05-19T06:49:54.739Z,99.90
2018-05-19T06:52:22.248Z,99.90
2018-05-19T06:54:50.477Z,99.90
2018-05-19T06:57:17.943Z,99.90
2018-05-19T06:59:45.424Z,99.90
2018-05-19T07:02:13.675Z,99.90
2018-05-19T07:04:41.143Z,99.90
2018-05-19T07:07:08.614Z,99.90
2018-05-19T07:09:36.829Z,99.60
2018-05-19T07:12:04.304Z,99.60
2018-05-19T07:14:32.083Z,99.70
2018-05-19T07:17:00.247Z,98.90
2018-05-19T07:19:27.707Z,98.90
2018-05-19T07:21:55.220Z,98.70
2018-05-19T07:24:22.678Z,99.00
2018-05-19T07:26:50.154Z,99.10
2018-05-19T07:29:17.629Z,98.80
2018-05-19T07:31:45.850Z,98.60
2018-05-19T07:34:13.586Z,98.80
2018-05-19T07:36:41.112Z,98.40
2018-05-19T07:39:08.586Z,98.00
2018-05-19T07:41:36.049Z,97.00
2018-05-19T07:46:46.523Z,95.60
2018-05-19T07:49:14.034Z,95.90
2018-05-19T07:51:41.542Z,94.90
2018-05-19T07:54:09.043Z,94.30
2018-05-19T07:56:36.497Z,93.80
2018-05-19T07:59:03.965Z,93.30
2018-05-19T08:01:31.445Z,92.90
2018-05-19T08:03:59.048Z,91.80
2018-05-19T08:06:27.793Z,89.70
2018-05-19T08:08:55.520Z,87.70
2018-05-19T08:21:08.115Z,87.30
2018-05-19T08:23:35.630Z,90.60
2018-05-19T08:26:03.919Z,90.90
2018-05-19T08:28:31.414Z,90.90
2018-05-19T08:30:58.883Z,90.40
2018-05-19T08:33:26.335Z,90.10
2018-05-19T08:35:53.807Z,87.50
2018-05-19T08:38:21.265Z,83.20
2018-05-19T08:40:48.764Z,83.90
2018-05-19T08:43:16.219Z,81.90
2018-05-19T08:45:43.723Z,79.40
2018-05-19T08:48:11.167Z,80.50
2018-05-19T08:50:38.716Z,81.40
2018-05-19T08:53:06.870Z,83.70
2018-05-19T08:55:34.368Z,83.80
2018-05-19T08:58:01.827Z,84.50
2018-05-19T09:00:29.289Z,83.50
2018-05-19T09:02:56.761Z,84.30
2018-05-19T09:05:24.206Z,84.20
2018-05-19T09:07:51.688Z,87.00
2018-05-19T09:10:19.132Z,84.30
2018-05-19T09:12:47.381Z,85.30
2018-05-19T09:15:19.138Z,85.20
2018-05-19T09:17:46.612Z,86.10
2018-05-19T09:20:14.094Z,85.90
2018-05-19T09:22:41.600Z,84.00
2018-05-19T09:25:09.056Z,82.30
2018-05-19T09:27:36.539Z,84.00
2018-05-19T09:30:04.015Z,84.90
2018-05-19T09:32:31.503Z,86.30
2018-05-19T09:34:58.971Z,88.80
2018-05-19T09:37:26.458Z,90.10
2018-05-19T09:39:53.914Z,90.10
2018-05-19T09:42:21.407Z,89.10
2018-05-19T09:44:48.919Z,90.80
2018-05-19T09:47:17.249Z,90.00
2018-05-19T09:49:44.775Z,89.80
2018-05-19T09:52:13.028Z,86.60
2018-05-19T09:54:41.520Z,86.50
2018-05-19T09:57:09.164Z,86.40
2018-05-19T09:59:36.658Z,86.30
2018-05-19T10:02:04.311Z,85.10
2018-05-19T10:04:32.186Z,85.80
2018-05-19T10:06:59.756Z,86.30
2018-05-19T10:19:07.434Z,88.20
2018-05-19T10:21:34.939Z,87.30
2018-05-19T10:24:02.448Z,86.40
2018-05-19T10:26:29.927Z,82.40
2018-05-19T10:28:58.177Z,80.90
2018-05-19T10:31:25.687Z,77.40
2018-05-19T10:33:53.174Z,78.50
2018-05-19T10:36:20.698Z,77.90
2018-05-19T10:38:48.191Z,76.90
2018-05-19T10:41:15.746Z,77.20
2018-05-19T10:43:43.197Z,77.30
2018-05-19T10:46:11.999Z,77.60
2018-05-19T10:48:40.218Z,76.50
2018-05-19T10:51:07.707Z,76.40
2018-05-19T10:53:35.175Z,76.70
2018-05-19T10:56:02.659Z,74.40
2018-05-19T10:58:30.114Z,73.80
2018-05-19T11:00:57.566Z,74.40
2018-05-19T11:03:29.715Z,74.00
2018-05-19T11:06:06.971Z,75.90
2018-05-19T11:08:35.377Z,75.40
2018-05-19T11:11:02.863Z,72.60
2018-05-19T11:13:30.350Z,70.70
2018-05-19T11:15:57.872Z,68.40
2018-05-19T11:18:25.383Z,67.00
2018-05-19T11:20:52.820Z,66.30
2018-05-19T11:23:20.307Z,64.80
2018-05-19T11:35:27.840Z,65.00
2018-05-19T11:37:55.369Z,67.30
2018-05-19T11:40:22.868Z,66.30
2018-05-19T11:42:50.323Z,66.70
2018-05-19T11:45:17.907Z,66.90
2018-05-19T11:47:46.070Z,66.70
2018-05-19T11:50:13.579Z,66.80
2018-05-19T11:52:41.302Z,68.20
2018-05-19T11:55:09.624Z,67.80
2018-05-19T11:57:37.051Z,67.80
2018-05-19T12:00:04.580Z,67.70
2018-05-19T12:02:32.075Z,68.00
2018-05-19T12:04:59.643Z,67.50
2018-05-19T12:07:27.116Z,67.80
2018-05-19T12:09:54.709Z,67.90
2018-05-19T12:12:22.605Z,68.00
2018-05-19T12:14:49.956Z,68.50
2018-05-19T12:17:17.978Z,69.50
2018-05-19T12:19:45.451Z,70.80
2018-05-19T12:22:12.924Z,68.60
2018-05-19T12:24:40.373Z,69.80
2018-05-19T12:27:07.931Z,68.60
2018-05-19T12:29:36.233Z,67.50
2018-05-19T12:32:03.683Z,67.50
2018-05-19T12:34:31.919Z,66.50
2018-05-19T12:36:59.379Z,66.40
2018-05-19T12:39:26.840Z,65.40
2018-05-19T12:41:54.347Z,65.00
2018-05-19T12:44:21.798Z,66.20
2018-05-19T12:46:49.272Z,66.30
2018-05-19T12:49:16.804Z,65.20
2018-05-19T12:51:44.263Z,64.80
2018-05-19T12:54:11.727Z,64.60
2018-05-19T12:56:39.182Z,63.30
2018-05-19T12:59:06.634Z,64.70
2018-05-19T13:01:34.098Z,63.20
2018-05-19T13:04:02.435Z,63.20
2018-05-19T13:06:29.887Z,63.10
2018-05-19T13:08:57.425Z,63.30
2018-05-19T13:11:28.943Z,61.00
2018-05-19T13:13:56.416Z,61.00
2018-05-19T13:16:23.893Z,59.70
2018-05-19T13:18:52.129Z,61.30
2018-05-19T13:21:19.593Z,60.40
2018-05-19T13:23:47.105Z,61.60
2018-05-19T13:26:15.340Z,60.40
2018-05-19T13:28:42.815Z,60.30
2018-05-19T13:31:10.309Z,60.00
2018-05-19T13:33:37.941Z,59.10
2018-05-19T13:36:05.426Z,58.30
2018-05-19T13:38:32.900Z,57.50
2018-05-19T13:41:00.372Z,58.30
2018-05-19T13:43:27.841Z,58.60
2018-05-19T13:45:55.326Z,57.60
2018-05-19T13:48:22.814Z,57.90
2018-05-19T13:50:50.283Z,58.80
2018-05-19T13:53:17.743Z,59.00
2018-05-19T13:55:45.331Z,59.20
2018-05-19T13:58:12.807Z,59.60
2018-05-19T14:00:40.290Z,59.10
2018-05-19T14:03:07.755Z,59.50
2018-05-19T14:05:35.226Z,58.60
2018-05-19T14:08:02.687Z,59.40
2018-05-19T14:10:30.167Z,59.10
2018-05-19T14:12:57.622Z,58.10
2018-05-19T14:15:25.879Z,59.90
2018-05-19T14:17:53.366Z,59.90
2018-05-19T14:20:20.864Z,59.30
2018-05-19T14:22:48.365Z,59.20
2018-05-19T14:25:15.852Z,60.10
2018-05-19T14:27:43.372Z,58.80
2018-05-19T14:30:10.770Z,58.10
2018-05-19T14:32:38.240Z,58.00
2018-05-19T14:35:05.734Z,58.60
2018-05-19T14:37:33.194Z,58.30
2018-05-19T14:40:00.662Z,58.00
2018-05-19T14:42:28.139Z,58.20
2018-05-19T14:44:55.677Z,58.40
2018-05-19T14:47:23.186Z,58.80
2018-05-19T14:49:50.710Z,59.20
2018-05-19T14:52:18.192Z,58.90
2018-05-19T14:54:45.655Z,59.00
2018-05-19T14:57:13.143Z,58.20
2018-05-19T14:59:40.607Z,58.20
2018-05-19T15:02:08.149Z,57.60
2018-05-19T15:04:36.380Z,57.30
2018-05-19T15:07:03.883Z,57.20
2018-05-19T15:09:31.501Z,57.50
2018-05-19T15:11:58.978Z,58.10
2018-05-19T15:14:27.290Z,59.60
2018-05-19T15:16:54.840Z,59.60
2018-05-19T15:19:22.298Z,59.80
2018-05-19T15:21:49.761Z,60.10
2018-05-19T15:24:17.275Z,59.90
2018-05-19T15:26:44.769Z,60.10
2018-05-19T15:29:12.992Z,60.90
2018-05-19T15:31:40.438Z,60.90
2018-05-19T15:34:08.672Z,62.10
2018-05-19T15:36:36.908Z,62.00
2018-05-19T15:39:05.959Z,63.50
2018-05-19T15:41:33.424Z,63.50
2018-05-19T15:44:00.927Z,64.20
2018-05-19T15:46:28.410Z,63.90
2018-05-19T15:48:55.883Z,63.30
2018-05-19T15:51:23.368Z,64.20
2018-05-19T15:53:50.836Z,64.20
2018-05-19T15:56:18.400Z,63.80
2018-05-19T15:58:45.830Z,63.50
2018-05-19T16:01:14.070Z,64.30
2018-05-19T16:03:41.544Z,64.30
2018-05-19T16:06:09.040Z,64.90
2018-05-19T16:08:36.494Z,65.10
2018-05-19T16:11:03.983Z,65.10
2018-05-19T16:13:31.474Z,65.30
2018-05-19T16:15:58.952Z,66.70
2018-05-19T16:18:30.974Z,66.80
2018-05-19T16:20:58.476Z,65.90
2018-05-19T16:23:25.979Z,66.00
2018-05-19T16:25:53.466Z,66.30
2018-05-19T16:28:21.680Z,66.80
2018-05-19T16:30:49.160Z,66.80
2018-05-19T16:33:16.612Z,67.00
2018-05-19T16:35:44.862Z,67.60
2018-05-19T16:38:12.376Z,67.60
2018-05-19T16:40:40.631Z,68.10
2018-05-19T16:43:08.208Z,68.10
2018-05-19T16:45:35.661Z,68.40
2018-05-19T16:48:03.181Z,67.70
2018-05-19T16:50:30.645Z,68.00
2018-05-19T16:52:58.139Z,68.30
2018-05-19T16:55:25.595Z,68.20
2018-05-19T16:57:53.060Z,68.50
2018-05-19T17:00:20.547Z,69.00
2018-05-19T17:02:48.012Z,69.20
2018-05-19T17:05:15.491Z,69.40
2018-05-19T17:07:42.961Z,70.10
2018-05-19T17:10:10.453Z,70.60
2018-05-19T17:12:37.968Z,71.00
2018-05-19T17:15:05.476Z,71.20
2018-05-19T17:17:32.965Z,71.70
2018-05-19T17:20:00.427Z,71.90
2018-05-19T17:22:27.891Z,72.40
2018-05-19T17:24:55.361Z,72.80
2018-05-19T17:27:22.860Z,73.90
2018-05-19T17:29:50.334Z,74.00
2018-05-19T17:32:17.807Z,74.60
2018-05-19T17:34:45.295Z,75.30
2018-05-19T17:37:12.794Z,75.80
2018-05-19T17:39:40.295Z,76.10
2018-05-19T17:42:07.953Z,76.50
2018-05-19T17:44:35.421Z,76.40
2018-05-19T17:47:03.513Z,77.70
2018-05-19T17:49:31.003Z,77.50
2018-05-19T17:51:59.219Z,78.00
2018-05-19T17:54:27.042Z,78.00
2018-05-19T17:56:54.546Z,77.90
2018-05-19T17:59:22.834Z,78.80
2018-05-19T18:01:50.313Z,78.80
2018-05-19T18:04:17.794Z,79.10
2018-05-19T18:06:46.032Z,80.50
2018-05-19T18:09:13.525Z,80.40
2018-05-19T18:11:40.975Z,80.70
2018-05-19T18:14:08.448Z,81.30
2018-05-19T18:16:36.061Z,81.50
2018-05-19T18:19:03.589Z,81.80
2018-05-19T18:21:31.071Z,82.80
2018-05-19T18:23:58.544Z,83.40
2018-05-19T18:26:27.867Z,83.70
2018-05-19T18:28:56.754Z,84.30
2018-05-19T18:31:24.379Z,84.90
2018-05-19T18:33:51.926Z,85.60
2018-05-19T18:36:20.146Z,86.70
2018-05-19T18:38:47.651Z,86.70
2018-05-19T18:41:15.139Z,87.30
2018-05-19T18:43:42.621Z,87.80
2018-05-19T18:46:10.871Z,88.90
2018-05-19T18:48:38.327Z,88.80
2018-05-19T18:51:05.811Z,89.40
2018-05-19T18:53:33.288Z,89.80
2018-05-19T18:56:00.753Z,90.00
2018-05-19T18:58:28.226Z,90.20
2018-05-19T19:00:55.922Z,90.50
2018-05-19T19:03:23.407Z,90.60
2018-05-19T19:05:51.478Z,90.90
2018-05-19T19:08:19.005Z,91.10
2018-05-19T19:10:46.519Z,91.50
2018-05-19T19:13:14.011Z,91.90
2018-05-19T19:15:41.463Z,92.30
2018-05-19T19:18:08.948Z,92.60
2018-05-19T19:20:36.421Z,93.00
2018-05-19T19:23:04.083Z,93.50
2018-05-19T19:25:32.163Z,93.70
2018-05-19T19:28:00.447Z,94.30
2018-05-19T19:30:27.906Z,94.30
2018-05-19T19:32:55.375Z,94.60
2018-05-19T19:35:22.854Z,94.80
2018-05-19T19:37:50.821Z,95.00
2018-05-19T19:40:18.401Z,95.10
2018-05-19T19:42:45.884Z,95.20
2018-05-19T19:45:13.705Z,95.60
2018-05-19T19:47:41.174Z,95.90
2018-05-19T19:50:08.743Z,96.10
2018-05-19T19:52:36.170Z,96.50
2018-05-19T19:55:03.672Z,96.80
2018-05-19T19:57:31.816Z,97.10
2018-05-19T19:59:59.270Z,97.50
2018-05-19T20:02:26.766Z,97.60
2018-05-19T20:04:54.257Z,98.00
2018-05-19T20:07:21.728Z,98.30
2018-05-19T20:10:12.871Z,98.30
2018-05-19T20:15:16.414Z,98.80
2018-05-19T20:17:43.981Z,98.80
2018-05-19T20:20:11.469Z,99.20
2018-05-19T20:23:06.410Z,99.70
2018-05-19T20:25:43.421Z,99.90
2018-05-19T20:28:16.254Z,99.90
2018-05-19T20:30:47.941Z,99.90
2018-05-19T20:33:27.449Z,99.90
2018-05-19T20:36:07.933Z,99.90
2018-05-19T20:38:35.454Z,99.90
2018-05-19T20:41:24.541Z,99.90
2018-05-19T20:43:55.233Z,99.90
2018-05-19T20:49:52.634Z,99.90
2018-05-19T20:52:20.181Z,99.90
2018-05-19T20:54:55.173Z,99.90
2018-05-19T21:06:42.851Z,99.90
2018-05-19T21:09:26.579Z,99.90
2018-05-19T21:11:54.643Z,99.90
2018-05-19T21:22:02.780Z,99.90
2018-05-19T21:28:12.416Z,99.90
2018-05-19T21:30:54.538Z,99.90
2018-05-19T21:33:27.944Z,99.90
2018-05-19T21:48:58.029Z,99.90
2018-05-19T21:51:25.506Z,99.90
2018-05-19T21:53:53.736Z,99.90
2018-05-19T21:56:21.211Z,99.90
2018-05-19T21:58:48.739Z,99.90
2018-05-19T22:01:16.253Z,99.90
2018-05-19T22:03:44.485Z,99.90
2018-05-19T22:06:11.976Z,99.90
2018-05-19T22:08:40.252Z,99.90
2018-05-19T22:11:07.750Z,99.90
2018-05-19T22:13:35.195Z,99.90
2018-05-19T22:16:02.663Z,99.90
2018-05-19T22:18:30.110Z,99.90
2018-05-19T22:20:57.602Z,99.90
2018-05-19T22:23:25.071Z,99.90
2018-05-19T22:25:52.537Z,99.90
2018-05-19T22:28:20.036Z,99.90
2018-05-19T22:30:47.497Z,99.90
2018-05-19T22:33:14.970Z,99.90
2018-05-19T22:35:42.423Z,99.90
2018-05-19T22:38:09.886Z,99.90
2018-05-19T22:40:37.356Z,99.90
2018-05-19T22:43:04.820Z,99.90
2018-05-19T22:45:33.192Z,99.90
2018-05-19T22:48:00.669Z,99.90
2018-05-19T22:50:28.890Z,99.90
2018-05-19T22:52:56.350Z,99.90
2018-05-19T22:55:23.805Z,99.90
2018-05-19T22:57:51.256Z,99.90
2018-05-19T23:00:22.593Z,99.90
2018-05-19T23:02:50.063Z,99.90
2018-05-19T23:05:17.526Z,99.90
2018-05-19T23:07:44.995Z,99.90
2018-05-19T23:10:12.504Z,99.90
2018-05-19T23:12:39.991Z,99.90
2018-05-19T23:15:07.523Z,99.90
2018-05-19T23:17:34.983Z,99.90
2018-05-19T23:20:02.461Z,99.90
2018-05-19T23:22:41.871Z,99.90
2018-05-19T23:25:10.180Z,99.90
2018-05-19T23:27:37.626Z,99.90
2018-05-19T23:30:05.128Z,99.90
2018-05-19T23:32:32.581Z,99.90
2018-05-19T23:35:00.028Z,99.90
2018-05-19T23:37:28.258Z,99.90
2018-05-19T23:39:55.728Z,99.90
2018-05-19T23:42:23.192Z,99.90
2018-05-19T23:44:50.658Z,99.90
2018-05-19T23:47:18.894Z,99.90
2018-05-19T23:49:46.406Z,99.90
2018-05-19T23:52:13.882Z,99.90
2018-05-19T23:54:42.159Z,99.90
2018-05-19T23:57:10.516Z,99.90
2018-05-19T23:59:37.994Z,99.90
